Time;durP1;ratioP1;P1;durP2;ratioP2;P2;SDS_P1;SDS_P2;PMS_P1;PMS_P2;Temp;Humidity;BMP_temperature;BMP_pressure;BME280_temperature;BME280_humidity;BME280_pressure;Samples;Min_cycle;Max_cycle;Signal;HPM_P1;HPM_P2
2022/09/24 00:00:19;;;;;;;5.80;2.50;;;;;;;10.61;66.36;98964.04;24917;1321;3026665;-61
2022/09/24 00:02:48;;;;;;;5.80;2.90;;;;;;;10.55;65.75;98961.10;24983;1321;3026064;-65
2022/09/24 00:05:17;;;;;;;6.90;2.80;;;;;;;10.33;66.03;98965.43;24895;1321;3070926;-63
2022/09/24 00:07:46;;;;;;;4.70;2.40;;;;;;;10.08;66.52;98964.39;24913;1321;3026552;-65
2022/09/24 00:10:15;;;;;;;7.50;2.80;;;;;;;10.02;66.42;98965.17;24943;1321;3050077;-65
2022/09/24 00:12:44;;;;;;;8.10;2.90;;;;;;;9.66;67.84;98965.58;24919;1319;3026798;-62
2022/09/24 00:15:14;;;;;;;4.00;2.40;;;;;;;9.70;67.32;98964.63;24950;1321;3026943;-64
2022/09/24 00:17:46;;;;;;;4.30;2.80;;;;;;;9.55;67.94;98962.81;24990;1321;3027449;-63
2022/09/24 00:20:15;;;;;;;6.80;2.50;;;;;;;9.28;68.98;98967.29;24960;1319;3028445;-64
2022/09/24 00:22:44;;;;;;;5.10;2.60;;;;;;;9.11;69.97;98966.09;24948;1321;3050681;-64
2022/09/24 00:28:07;;;;;;;3.90;2.10;;;;;;;9.86;69.14;98957.12;24924;1320;3071731;-62
2022/09/24 00:30:37;;;;;;;5.90;2.40;;;;;;;10.08;68.15;98959.33;24958;1320;3026286;-65
2022/09/24 00:33:07;;;;;;;8.90;2.50;;;;;;;10.17;67.33;98954.73;24972;1321;3026822;-66
2022/09/24 00:35:36;;;;;;;5.80;2.40;;;;;;;9.98;67.50;98956.65;24978;1321;3026972;-65
2022/09/24 00:38:05;;;;;;;4.10;2.50;;;;;;;9.64;68.45;98949.25;24961;1319;3026890;-63
2022/09/24 00:40:38;;;;;;;3.10;2.20;;;;;;;9.35;69.53;98956.55;24939;1319;3029582;-66
2022/09/24 00:43:40;;;;;;;5.40;2.80;;;;;;;9.17;70.37;98956.83;24972;1318;3051669;-64
2022/09/24 00:46:13;;;;;;;5.50;2.50;;;;;;;8.91;71.63;98961.73;24812;1321;3058804;-63
2022/09/24 00:48:43;;;;;;;3.80;2.50;;;;;;;8.88;71.42;98960.52;24942;1321;3028927;-64
2022/09/24 00:51:15;;;;;;;4.70;2.00;;;;;;;8.86;71.84;98957.79;24888;1321;3026957;-63
2022/09/24 00:53:52;;;;;;;3.90;1.90;;;;;;;9.69;70.80;98955.72;24891;1321;3059126;-66
2022/09/24 00:56:21;;;;;;;5.50;2.50;;;;;;;10.02;69.13;98949.38;24914;1321;3026451;-63
2022/09/24 00:58:56;;;;;;;4.40;2.50;;;;;;;9.98;68.58;98951.23;24890;1321;3026860;-65
2022/09/24 01:01:28;;;;;;;4.00;2.20;;;;;;;9.60;69.50;98951.08;24878;1321;3054733;-62
2022/09/24 01:03:58;;;;;;;4.10;2.30;;;;;;;9.29;70.57;98948.54;24850;1321;3026572;-62
2022/09/24 01:06:27;;;;;;;5.90;2.80;;;;;;;9.17;70.71;98945.96;24811;1321;3028400;-63
2022/09/24 01:08:58;;;;;;;5.40;2.90;;;;;;;8.89;72.22;98941.77;24961;1321;3026673;-62
2022/09/24 01:12:05;;;;;;;4.80;2.30;;;;;;;8.90;71.73;98937.89;24854;1321;3026533;-62
2022/09/24 01:14:38;;;;;;;4.70;1.90;;;;;;;8.91;72.51;98933.91;24887;1321;3051587;-62
2022/09/24 01:17:19;;;;;;;4.50;2.00;;;;;;;9.55;71.36;98935.33;24901;1321;3053608;-63
2022/09/24 01:20:15;;;;;;;5.70;2.40;;;;;;;10.00;69.59;98933.81;24935;1321;3055628;-60
2022/09/24 01:22:51;;;;;;;5.20;2.40;;;;;;;9.66;70.12;98933.20;24853;1321;3057430;-64
2022/09/24 01:25:35;;;;;;;4.80;2.50;;;;;;;9.60;69.88;98930.10;24944;1321;3026657;-64
2022/09/24 01:28:26;;;;;;;5.90;2.30;;;;;;;9.14;71.30;98927.96;24936;1321;3055782;-65
2022/09/24 01:30:59;;;;;;;5.90;2.70;;;;;;;8.91;72.06;98929.23;24888;1321;3051727;-64
2022/09/24 01:33:29;;;;;;;5.40;2.70;;;;;;;8.73;72.58;98925.45;24901;1321;3070759;-66
2022/09/24 01:36:00;;;;;;;4.70;2.70;;;;;;;8.49;73.74;98928.98;24973;1321;3026867;-65
2022/09/24 01:38:33;;;;;;;4.70;1.90;;;;;;;8.36;74.61;98928.56;24944;1321;3027061;-65
2022/09/24 01:41:02;;;;;;;3.50;2.10;;;;;;;8.97;73.84;98924.00;24916;1321;3054628;-63
2022/09/24 01:43:32;;;;;;;3.70;2.10;;;;;;;9.46;71.90;98926.48;24884;1321;3026803;-66
2022/09/24 01:46:03;;;;;;;7.50;2.90;;;;;;;9.40;70.95;98925.60;24816;1321;3027285;-63
2022/09/24 01:48:36;;;;;;;4.20;2.60;;;;;;;9.35;71.10;98928.21;24883;1321;3027131;-65
2022/09/24 01:51:29;;;;;;;5.70;2.50;;;;;;;9.28;70.67;98923.91;24950;1321;3026922;-63
2022/09/24 01:54:06;;;;;;;4.70;2.70;;;;;;;8.70;72.62;98925.84;24921;1321;3072502;-63
2022/09/24 01:56:43;;;;;;;6.20;2.80;;;;;;;8.56;73.10;98925.07;24887;1321;3052094;-65
2022/09/24 01:59:30;;;;;;;4.30;2.40;;;;;;;8.38;73.81;98922.33;24931;1321;3054903;-61
2022/09/24 02:02:04;;;;;;;3.90;1.30;;;;;;;8.19;75.14;98920.11;24877;1321;3052606;-63
2022/09/24 02:04:37;;;;;;;4.60;2.30;;;;;;;8.87;73.85;98918.14;24908;1320;3059264;-65
2022/09/24 02:07:12;;;;;;;5.40;2.50;;;;;;;9.60;71.52;98912.63;24912;1321;3026682;-65
2022/09/24 02:09:42;;;;;;;4.10;2.20;;;;;;;9.59;70.45;98910.94;24943;1321;3052840;-67
2022/09/24 02:12:29;;;;;;;6.10;2.60;;;;;;;9.21;71.16;98911.08;24977;1321;3026481;-64
2022/09/24 02:15:02;;;;;;;6.30;2.40;;;;;;;8.75;72.66;98911.52;24951;1321;3069212;-63
2022/09/24 02:17:33;;;;;;;4.40;2.30;;;;;;;8.53;73.14;98914.59;24926;1321;3051746;-63
2022/09/24 02:20:04;;;;;;;5.10;2.90;;;;;;;8.32;73.85;98919.86;24922;1321;3026998;-65
2022/09/24 02:22:33;;;;;;;4.70;2.50;;;;;;;8.21;74.19;98917.55;24911;1321;3027701;-62
2022/09/24 02:25:05;;;;;;;3.00;1.90;;;;;;;8.10;75.34;98919.59;24944;1321;3026894;-59
2022/09/24 02:27:34;;;;;;;6.30;2.10;;;;;;;8.70;74.48;98916.73;24914;1321;3026434;-64
2022/09/24 02:30:04;;;;;;;3.60;2.00;;;;;;;9.24;72.32;98911.65;24875;1321;3026548;-63
2022/09/24 02:32:39;;;;;;;4.40;2.10;;;;;;;8.84;73.55;98910.80;24917;1321;3058597;-62
2022/09/24 02:35:09;;;;;;;7.20;2.20;;;;;;;8.54;74.35;98918.39;24916;1321;3027973;-65
2022/09/24 02:37:40;;;;;;;5.80;2.50;;;;;;;8.42;74.40;98918.40;24967;1321;3026928;-64
2022/09/24 02:40:12;;;;;;;4.40;2.30;;;;;;;8.41;74.19;98920.92;24898;1321;3026519;-63
2022/09/24 02:42:42;;;;;;;4.80;1.90;;;;;;;8.15;75.13;98919.85;24889;1321;3027811;-64
2022/09/24 02:45:11;;;;;;;3.10;1.60;;;;;;;8.15;75.27;98928.35;24871;1321;3026257;-65
2022/09/24 02:47:40;;;;;;;3.50;1.70;;;;;;;8.67;74.47;98919.20;24917;1321;3027875;-63
2022/09/24 02:50:09;;;;;;;3.70;2.00;;;;;;;9.08;72.80;98916.82;24869;1321;3026655;-67
2022/09/24 02:52:38;;;;;;;3.20;1.90;;;;;;;9.01;72.26;98924.08;24928;1321;3051626;-62
2022/09/24 02:55:07;;;;;;;4.30;2.20;;;;;;;8.77;72.58;98927.11;24905;1321;3026283;-68
2022/09/24 02:57:36;;;;;;;3.90;2.40;;;;;;;8.29;74.20;98932.61;24925;1321;3070738;-62
2022/09/24 03:00:12;;;;;;;3.60;2.40;;;;;;;8.07;74.90;98936.52;24901;1321;3026714;-62
2022/09/24 03:02:43;;;;;;;3.40;2.20;;;;;;;7.91;75.30;98941.83;24939;1321;3049834;-63
2022/09/24 03:05:17;;;;;;;4.20;2.50;;;;;;;8.01;74.83;98941.58;24911;1321;3026736;-63
2022/09/24 03:07:46;;;;;;;2.70;1.80;;;;;;;8.56;74.28;98936.43;24974;1321;3055829;-66
2022/09/24 03:10:15;;;;;;;4.00;1.90;;;;;;;8.67;73.26;98939.28;24916;1321;3026527;-63
2022/09/24 03:12:45;;;;;;;3.30;1.80;;;;;;;8.45;73.77;98940.95;24962;1321;3026252;-65
2022/09/24 03:15:14;;;;;;;3.60;2.30;;;;;;;8.21;74.49;98947.55;24920;1321;3055496;-66
2022/09/24 03:17:44;;;;;;;5.50;2.60;;;;;;;7.80;76.02;98944.89;24901;1320;3026666;-65
2022/09/24 03:20:23;;;;;;;3.00;1.80;;;;;;;7.77;75.75;98950.98;24993;1321;3026536;-67
2022/09/24 03:22:52;;;;;;;3.70;1.50;;;;;;;7.58;76.44;98957.27;24920;1321;3052019;-66
2022/09/24 03:25:21;;;;;;;3.00;1.90;;;;;;;7.86;76.79;98955.88;24900;1321;3026717;-63
2022/09/24 03:27:50;;;;;;;2.90;1.70;;;;;;;8.11;76.13;98954.29;24900;1321;3070633;-67
2022/09/24 03:33:07;;;;;;;2.90;1.80;;;;;;;8.05;75.12;98948.18;24963;1321;3053627;-66
2022/09/24 03:35:36;;;;;;;3.80;2.00;;;;;;;7.80;75.93;98946.95;24929;1321;3026782;-61
2022/09/24 03:38:05;;;;;;;4.20;2.30;;;;;;;7.55;77.06;98954.31;24907;1321;3026547;-64
2022/09/24 03:40:35;;;;;;;3.20;2.10;;;;;;;7.40;77.46;98955.13;24944;1321;3053761;-64
2022/09/24 03:43:04;;;;;;;2.10;1.20;;;;;;;7.39;77.75;98952.42;24902;1321;3026806;-67
2022/09/24 03:45:33;;;;;;;2.70;1.80;;;;;;;7.90;77.30;98960.71;24927;1321;3054528;-66
2022/09/24 03:48:02;;;;;;;2.80;1.70;;;;;;;8.43;75.55;98953.95;24924;1321;3026610;-65
2022/09/24 03:50:34;;;;;;;3.00;1.50;;;;;;;8.50;74.15;98955.15;24892;1321;3051140;-65
2022/09/24 03:53:03;;;;;;;3.80;1.90;;;;;;;8.29;74.45;98954.60;24897;1321;3026511;-67
2022/09/24 03:55:32;;;;;;;5.20;2.30;;;;;;;8.00;75.19;98954.20;24954;1320;3026806;-65
2022/09/24 03:58:08;;;;;;;3.20;2.10;;;;;;;7.79;75.91;98944.05;24900;1321;3051429;-66
2022/09/24 04:00:38;;;;;;;3.10;1.80;;;;;;;7.67;76.28;98952.41;24897;1321;3027481;-70
2022/09/24 04:03:10;;;;;;;2.90;1.60;;;;;;;7.60;77.10;98954.08;24889;1321;3027139;-64
2022/09/24 04:05:39;;;;;;;2.90;1.50;;;;;;;8.17;75.72;98950.91;24876;1321;3026700;-65
2022/09/24 04:08:08;;;;;;;3.00;2.10;;;;;;;8.22;75.33;98950.98;24967;1320;3026867;-64
2022/09/24 04:10:38;;;;;;;2.80;1.90;;;;;;;8.25;75.29;98948.05;24972;1320;3051177;-62
2022/09/24 04:13:32;;;;;;;3.80;2.40;;;;;;;7.95;76.20;98950.30;24949;1321;3072921;-63
2022/09/24 04:16:02;;;;;;;4.20;2.60;;;;;;;7.83;76.70;98952.73;24949;1321;3026239;-67
2022/09/24 04:18:31;;;;;;;3.90;2.80;;;;;;;7.61;77.37;98948.91;24912;1321;3051487;-64
2022/09/24 04:21:02;;;;;;;4.30;1.70;;;;;;;7.44;78.70;98948.80;24931;1321;3028839;-64
2022/09/24 04:23:32;;;;;;;3.30;1.60;;;;;;;7.91;78.25;98952.30;24923;1321;3026809;-65
2022/09/24 04:26:01;;;;;;;3.60;2.40;;;;;;;8.54;75.81;98959.58;24896;1321;3026472;-67
2022/09/24 04:28:30;;;;;;;5.30;2.80;;;;;;;8.57;74.91;98956.27;24958;1319;3069282;-64
2022/09/24 04:30:59;;;;;;;8.70;2.80;;;;;;;8.41;75.46;98956.73;24912;1321;3026299;-67
2022/09/24 04:33:28;;;;;;;3.90;2.40;;;;;;;8.15;76.19;98953.16;24953;1320;3054777;-66
2022/09/24 04:35:57;;;;;;;6.70;3.00;;;;;;;8.02;76.58;98958.27;24995;1319;3026557;-66
2022/09/24 04:38:26;;;;;;;3.00;2.30;;;;;;;7.88;77.38;98960.48;24984;1321;3056004;-66
2022/09/24 04:41:03;;;;;;;4.60;1.90;;;;;;;7.82;77.62;98957.86;24990;1320;3026680;-62
2022/09/24 04:43:33;;;;;;;3.30;1.90;;;;;;;8.53;76.08;98960.90;24907;1321;3053554;-63
2022/09/24 04:46:02;;;;;;;3.90;2.50;;;;;;;8.93;74.70;98965.58;24913;1321;3026904;-67
2022/09/24 04:48:31;;;;;;;4.80;2.90;;;;;;;8.98;73.40;98963.77;24905;1321;3058991;-62
2022/09/24 04:51:02;;;;;;;6.60;2.60;;;;;;;8.74;74.14;98967.65;24938;1321;3026381;-61
2022/09/24 04:53:33;;;;;;;4.30;2.90;;;;;;;8.28;75.43;98967.77;25006;1319;3026490;-64
2022/09/24 04:56:03;;;;;;;4.90;2.20;;;;;;;8.00;76.48;98968.16;24924;1321;3028340;-62
2022/09/24 04:58:32;;;;;;;4.50;2.90;;;;;;;7.92;76.67;98970.70;24919;1321;3026901;-63
2022/09/24 05:01:04;;;;;;;7.10;2.00;;;;;;;7.80;78.02;98974.19;24892;1320;3026275;-64
2022/09/24 05:03:34;;;;;;;4.90;2.80;;;;;;;8.55;75.88;98974.75;24983;1321;3050981;-62
2022/09/24 05:06:03;;;;;;;5.00;2.90;;;;;;;8.88;74.33;98967.85;24873;1320;3026686;-66
2022/09/24 05:08:33;;;;;;;4.80;3.00;;;;;;;8.59;74.57;98968.73;24893;1321;3055046;-64
2022/09/24 05:11:02;;;;;;;7.80;3.70;;;;;;;8.40;75.28;98971.40;24944;1321;3026540;-63
2022/09/24 05:13:31;;;;;;;5.30;3.30;;;;;;;8.18;76.00;98971.10;24863;1320;3049408;-64
2022/09/24 05:16:01;;;;;;;7.10;3.50;;;;;;;8.03;76.62;98972.86;24954;1320;3026473;-63
2022/09/24 05:18:30;;;;;;;6.40;2.90;;;;;;;8.01;76.92;98972.13;24943;1319;3056689;-65
2022/09/24 05:20:59;;;;;;;7.50;2.90;;;;;;;8.36;77.41;98973.20;24877;1322;3026581;-67
2022/09/24 05:23:28;;;;;;;5.30;3.00;;;;;;;8.73;75.85;98969.95;24928;1321;3054910;-65
2022/09/24 05:28:45;;;;;;;8.60;3.50;;;;;;;8.59;75.88;98961.90;24881;1321;3051027;-65
2022/09/24 05:31:15;;;;;;;7.40;4.40;;;;;;;8.47;76.38;98968.91;24969;1320;3026550;-63
2022/09/24 05:33:45;;;;;;;7.90;3.80;;;;;;;8.24;77.60;98977.75;24943;1321;3049172;-64
2022/09/24 05:36:14;;;;;;;4.90;2.30;;;;;;;8.36;77.41;98973.92;24948;1321;3026295;-62
2022/09/24 05:38:43;;;;;;;4.10;2.50;;;;;;;8.95;76.23;98974.77;24888;1320;3026162;-63
2022/09/24 05:41:14;;;;;;;5.00;3.30;;;;;;;9.41;74.49;98970.10;24914;1320;3026490;-61
2022/09/24 05:43:43;;;;;;;5.20;3.10;;;;;;;9.25;74.25;98973.40;24944;1319;3026916;-64
2022/09/24 05:46:12;;;;;;;4.30;2.90;;;;;;;8.99;75.31;98970.83;24906;1319;3051969;-65
2022/09/24 05:48:41;;;;;;;6.00;4.30;;;;;;;8.75;76.32;98978.44;24905;1319;3026558;-64
2022/09/24 05:51:10;;;;;;;7.90;4.00;;;;;;;8.53;77.51;98983.58;24926;1319;3054698;-62
2022/09/24 05:53:39;;;;;;;6.50;4.10;;;;;;;8.53;77.73;98981.63;24884;1320;3028740;-63
2022/09/24 05:56:09;;;;;;;8.20;2.30;;;;;;;8.61;77.83;98984.30;24971;1321;3026193;-64
2022/09/24 05:58:40;;;;;;;5.30;2.80;;;;;;;9.44;75.74;98979.23;24907;1319;3054554;-64
2022/09/24 06:01:09;;;;;;;6.50;3.20;;;;;;;9.90;73.61;98976.83;24901;1319;3029372;-64
2022/09/24 06:03:38;;;;;;;5.20;3.30;;;;;;;9.80;73.28;98977.29;24937;1321;3051030;-64
2022/09/24 06:06:07;;;;;;;5.10;2.80;;;;;;;9.67;73.56;98980.71;24885;1321;3027133;-66
2022/09/24 06:08:37;;;;;;;9.10;3.00;;;;;;;9.59;73.49;98986.52;24917;1319;3026883;-65
2022/09/24 06:11:07;;;;;;;5.70;3.00;;;;;;;9.51;73.61;98984.73;24870;1322;3027899;-67
2022/09/24 06:13:38;;;;;;;4.80;3.00;;;;;;;9.30;74.63;98983.98;25030;1319;3054733;-61
2022/09/24 06:16:09;;;;;;;5.10;3.00;;;;;;;9.29;74.52;98984.02;24912;1322;3027044;-61
2022/09/24 06:18:40;;;;;;;3.10;1.80;;;;;;;9.10;75.90;98985.87;24961;1321;3026285;-62
2022/09/24 06:21:12;;;;;;;3.90;2.40;;;;;;;9.60;75.04;98985.91;24950;1321;3026368;-66
2022/09/24 06:23:44;;;;;;;5.90;3.10;;;;;;;10.16;72.98;98983.49;24952;1319;3026806;-65
2022/09/24 06:26:13;;;;;;;5.60;2.60;;;;;;;10.35;71.98;98994.98;24972;1321;3026570;-66
2022/09/24 06:28:42;;;;;;;5.10;3.10;;;;;;;10.16;71.99;98996.64;24973;1319;3027047;-65
2022/09/24 06:31:11;;;;;;;4.60;2.80;;;;;;;9.85;72.92;98999.66;24948;1320;3028296;-65
2022/09/24 06:33:41;;;;;;;4.50;3.10;;;;;;;9.61;73.90;98998.80;24981;1319;3053051;-66
2022/09/24 06:36:10;;;;;;;6.00;3.30;;;;;;;9.69;73.79;98994.61;24966;1321;3026706;-65
2022/09/24 06:38:41;;;;;;;6.70;3.50;;;;;;;9.70;73.33;98993.98;24939;1321;3026944;-68
2022/09/24 06:41:10;;;;;;;3.20;1.70;;;;;;;9.66;74.07;98990.42;25007;1319;3028638;-64
2022/09/24 06:43:39;;;;;;;4.70;2.40;;;;;;;10.14;73.29;98994.48;24988;1322;3070894;-64
2022/09/24 06:46:09;;;;;;;4.50;3.10;;;;;;;10.83;71.32;98998.27;24978;1319;3026147;-68
2022/09/24 06:48:38;;;;;;;3.80;2.60;;;;;;;10.94;70.41;99004.48;25041;1319;3051916;-70
2022/09/24 06:51:07;;;;;;;4.40;2.70;;;;;;;10.67;70.55;99006.52;25025;1321;3026913;-63
2022/09/24 06:53:37;;;;;;;7.00;2.90;;;;;;;10.44;71.26;98999.17;25018;1319;3027126;-63
2022/09/24 06:56:09;;;;;;;4.80;3.00;;;;;;;10.30;71.89;99000.23;24935;1322;3053581;-67
2022/09/24 06:58:38;;;;;;;4.70;3.40;;;;;;;10.18;72.58;98996.12;25024;1320;3027573;-66
2022/09/24 07:01:07;;;;;;;4.70;3.60;;;;;;;10.08;73.38;98997.67;24947;1321;3027045;-68
2022/09/24 07:03:37;;;;;;;7.10;4.10;;;;;;;9.87;74.42;98997.82;24969;1322;3050146;-67
2022/09/24 07:06:12;;;;;;;3.00;2.00;;;;;;;9.85;75.03;99002.86;24999;1320;3067983;-64
2022/09/24 07:08:42;;;;;;;6.40;2.40;;;;;;;10.25;74.39;99005.11;25062;1319;3026672;-65
2022/09/24 07:11:14;;;;;;;5.80;2.80;;;;;;;10.93;71.99;99008.11;25048;1319;3028864;-66
2022/09/24 07:13:47;;;;;;;5.80;3.60;;;;;;;10.73;72.10;99007.02;25026;1319;3026847;-66
2022/09/24 07:16:16;;;;;;;5.70;3.30;;;;;;;10.58;72.84;99003.45;25059;1319;3028661;-62
2022/09/24 07:18:45;;;;;;;5.20;3.10;;;;;;;10.44;73.19;99001.80;24972;1319;3027140;-66
2022/09/24 07:21:15;;;;;;;5.40;3.40;;;;;;;10.41;72.80;99003.55;25022;1319;3026333;-63
2022/09/24 07:23:45;;;;;;;4.60;2.90;;;;;;;10.43;72.58;98998.16;24976;1322;3026078;-66
2022/09/24 07:26:14;;;;;;;5.30;3.10;;;;;;;10.26;73.78;98998.00;24917;1323;3049032;-66
2022/09/24 07:28:43;;;;;;;6.60;2.60;;;;;;;10.29;74.03;98998.91;24990;1321;3026744;-69
2022/09/24 07:31:12;;;;;;;4.80;2.80;;;;;;;10.80;71.75;99004.92;24988;1322;3055453;-65
2022/09/24 07:33:41;;;;;;;3.40;2.30;;;;;;;10.97;70.70;99000.95;24893;1319;3028468;-68
2022/09/24 07:36:12;;;;;;;4.90;2.30;;;;;;;11.30;69.41;98996.42;25792;1319;3026889;-67
2022/09/24 07:38:42;;;;;;;6.40;3.00;;;;;;;10.96;70.01;98998.77;25800;1319;3026842;-69
2022/09/24 07:41:11;;;;;;;3.60;2.50;;;;;;;10.78;70.70;98997.55;25704;1319;3026814;-68
2022/09/24 07:43:43;;;;;;;5.50;3.10;;;;;;;10.71;71.28;98999.79;25802;1319;3052688;-65
2022/09/24 07:46:11;;;;;;;5.00;3.10;;;;;;;10.64;71.23;99003.41;25796;1319;3026929;-64
2022/09/24 07:48:42;;;;;;;5.10;2.90;;;;;;;10.52;71.54;99001.79;25210;1319;3026784;-67
2022/09/24 07:51:11;;;;;;;6.30;3.00;;;;;;;10.50;71.74;99002.75;24989;1319;3027077;-68
2022/09/24 07:53:40;;;;;;;6.60;3.30;;;;;;;10.59;71.32;99003.95;24913;1319;3050667;-67
2022/09/24 07:56:09;;;;;;;3.70;2.30;;;;;;;10.38;72.82;98998.34;24984;1321;3027279;-68
2022/09/24 07:58:38;;;;;;;7.80;3.10;;;;;;;10.91;71.47;98996.15;24988;1319;3055169;-66
2022/09/24 08:01:07;;;;;;;4.90;3.00;;;;;;;11.49;69.44;98991.90;25020;1319;3026279;-65
2022/09/24 08:03:38;;;;;;;7.30;3.80;;;;;;;11.79;68.61;98988.86;24975;1323;3052228;-64
2022/09/24 08:06:07;;;;;;;5.80;3.90;;;;;;;11.88;67.94;98987.31;25026;1320;3026628;-64
2022/09/24 08:08:37;;;;;;;6.00;4.00;;;;;;;12.10;67.09;98996.05;24964;1320;3026396;-69
2022/09/24 08:11:09;;;;;;;6.60;4.40;;;;;;;11.95;67.39;98996.25;25028;1322;3027004;-68
2022/09/24 08:13:38;;;;;;;7.40;4.40;;;;;;;11.83;67.86;99000.83;25008;1321;3026863;-64
2022/09/24 08:16:07;;;;;;;5.40;4.00;;;;;;;11.66;67.80;98997.66;24910;1321;3029517;-67
2022/09/24 08:18:36;;;;;;;6.60;4.00;;;;;;;11.53;68.59;98997.95;24985;1321;3069040;-66
2022/09/24 08:21:09;;;;;;;5.00;4.20;;;;;;;11.54;68.97;98998.20;24936;1320;3026924;-67
2022/09/24 08:23:39;;;;;;;4.60;3.70;;;;;;;11.60;68.44;98999.84;24282;1321;4184867;-69
2022/09/24 08:26:12;;;;;;;6.70;4.50;;;;;;;11.60;68.08;99007.27;24987;1322;3070895;-66
2022/09/24 08:28:41;;;;;;;6.90;4.30;;;;;;;11.49;68.78;99003.15;24886;1321;3026596;-67
2022/09/24 08:31:11;;;;;;;8.20;4.90;;;;;;;11.45;69.20;99008.10;25028;1320;3026481;-68
2022/09/24 08:33:40;;;;;;;5.10;2.70;;;;;;;11.36;69.69;99007.92;24981;1320;3068129;-64
2022/09/24 08:36:09;;;;;;;6.90;3.70;;;;;;;12.08;68.07;99007.40;25001;1319;3027547;-67
2022/09/24 08:38:39;;;;;;;6.70;4.10;;;;;;;12.82;66.06;99001.58;24966;1322;3026552;-64
2022/09/24 08:41:10;;;;;;;7.40;5.10;;;;;;;13.08;64.62;99007.27;25004;1320;3070949;-63
2022/09/24 08:44:04;;;;;;;10.60;4.70;;;;;;;12.96;64.53;98998.16;25003;1322;3049698;-68
2022/09/24 08:49:42;;;;;;;6.20;4.30;;;;;;;12.98;64.14;98997.83;24942;1319;3056058;-65
2022/09/24 08:52:30;;;;;;;6.90;5.10;;;;;;;12.84;64.14;98996.66;24946;1322;3059052;-66
2022/09/24 08:55:03;;;;;;;7.30;5.20;;;;;;;12.55;65.27;98999.73;24873;1321;3052060;-62
2022/09/24 08:57:38;;;;;;;6.70;5.10;;;;;;;12.44;65.92;98993.85;25046;1320;3026101;-66
2022/09/24 09:00:13;;;;;;;11.10;5.80;;;;;;;12.20;66.52;98990.98;24973;1321;3051195;-67
2022/09/24 09:02:47;;;;;;;7.90;5.70;;;;;;;12.22;66.03;99003.23;24989;1320;3069547;-64
2022/09/24 09:05:38;;;;;;;13.20;7.80;;;;;;;12.27;66.50;98992.20;24898;1321;3050828;-66
2022/09/24 09:08:12;;;;;;;8.10;5.70;;;;;;;12.32;66.55;98994.79;25018;1320;3054996;-66
2022/09/24 09:10:43;;;;;;;6.00;4.70;;;;;;;12.36;65.73;98995.03;25014;1319;3053600;-67
2022/09/24 09:13:16;;;;;;;9.20;5.10;;;;;;;12.43;65.80;98988.32;24990;1320;3026806;-66
2022/09/24 09:16:20;;;;;;;6.70;4.70;;;;;;;12.59;64.85;98989.79;24984;1321;3052378;-65
2022/09/24 09:18:51;;;;;;;8.50;5.70;;;;;;;12.68;64.86;98986.47;24936;1320;3055416;-66
2022/09/24 09:21:31;;;;;;;12.10;6.10;;;;;;;12.64;64.89;98984.09;24966;1320;3029556;-66
2022/09/24 09:23:59;;;;;;;8.90;5.90;;;;;;;12.54;65.32;98981.20;25027;1319;3049758;-69
2022/09/24 09:26:28;;;;;;;6.70;4.60;;;;;;;12.52;65.43;98980.65;25088;1321;3027429;-64
2022/09/24 09:28:59;;;;;;;7.40;5.20;;;;;;;12.42;64.89;98984.89;25026;1319;3055269;-67
2022/09/24 09:32:01;;;;;;;6.00;4.30;;;;;;;12.51;64.72;98978.59;24890;1319;3052395;-65
2022/09/24 09:34:51;;;;;;;8.10;5.00;;;;;;;12.55;64.75;98972.88;25049;1321;3055849;-67
2022/09/24 09:37:43;;;;;;;7.80;5.20;;;;;;;12.71;64.42;98974.94;24982;1321;3051140;-67
2022/09/24 09:40:34;;;;;;;6.60;4.70;;;;;;;12.70;64.21;98976.44;24943;1319;3070971;-65
2022/09/24 09:43:08;;;;;;;8.00;5.40;;;;;;;12.71;64.10;98976.05;25020;1321;3051065;-64
2022/09/24 09:45:43;;;;;;;9.00;5.00;;;;;;;12.85;63.79;98981.31;24965;1319;3026674;-68
2022/09/24 09:48:12;;;;;;;6.20;4.80;;;;;;;12.87;63.80;98973.55;24994;1321;3054403;-67
2022/09/24 09:50:49;;;;;;;10.70;5.50;;;;;;;12.99;63.83;98973.31;24932;1320;3026497;-67
2022/09/24 09:53:23;;;;;;;7.50;4.60;;;;;;;13.16;63.76;98968.64;25006;1322;3049530;-67
2022/09/24 09:56:00;;;;;;;10.00;4.60;;;;;;;13.37;62.91;98970.02;25017;1320;3053619;-65
2022/09/24 09:58:46;;;;;;;9.30;5.80;;;;;;;13.36;61.97;98966.36;25006;1319;3051044;-68
2022/09/24 10:01:18;;;;;;;6.20;4.50;;;;;;;13.32;61.15;98966.34;25055;1319;3070270;-65
2022/09/24 10:03:51;;;;;;;5.70;4.10;;;;;;;13.37;61.08;98963.33;25001;1321;3026554;-64
2022/09/24 10:06:23;;;;;;;7.30;4.40;;;;;;;13.25;61.41;98961.45;24999;1321;3026572;-66
2022/09/24 10:08:53;;;;;;;7.30;4.00;;;;;;;13.35;61.45;98960.84;24968;1319;3027466;-63
2022/09/24 10:11:22;;;;;;;7.40;4.40;;;;;;;13.41;60.88;98964.97;24975;1319;3027707;-67
2022/09/24 10:14:05;;;;;;;8.30;4.90;;;;;;;13.56;60.09;98956.71;24906;1319;3026801;-64
2022/09/24 10:16:37;;;;;;;5.10;3.70;;;;;;;13.72;59.70;98959.77;24984;1321;3052313;-67
2022/09/24 10:19:21;;;;;;;6.90;4.30;;;;;;;13.70;59.60;98960.20;24980;1319;3026553;-65
2022/09/24 10:21:50;;;;;;;10.40;5.00;;;;;;;14.01;59.52;98949.88;24953;1320;3050210;-64
2022/09/24 10:24:21;;;;;;;8.10;4.70;;;;;;;14.15;58.29;98952.02;25024;1322;3026790;-64
2022/09/24 10:26:51;;;;;;;6.60;4.30;;;;;;;13.97;58.13;98954.79;25029;1319;3057418;-66
2022/09/24 10:32:18;;;;;;;5.50;3.40;;;;;;;13.93;58.36;98957.55;24987;1319;3053366;-64
2022/09/24 10:35:01;;;;;;;3.80;2.80;;;;;;;13.72;57.93;98963.63;24969;1319;3054058;-67
2022/09/24 10:37:30;;;;;;;6.60;2.40;;;;;;;13.26;57.03;98967.40;24986;1321;3071566;-67
2022/09/24 10:40:00;;;;;;;3.60;2.10;;;;;;;13.17;57.38;98971.08;25044;1320;3028406;-63
2022/09/24 10:42:29;;;;;;;4.90;2.20;;;;;;;13.21;57.78;98970.93;25024;1318;3050955;-66
2022/09/24 10:45:02;;;;;;;4.40;2.20;;;;;;;13.18;58.73;98982.90;24972;1318;3026364;-65
2022/09/24 10:47:52;;;;;;;3.70;2.30;;;;;;;13.00;59.22;98982.96;25021;1320;3048627;-70
2022/09/24 10:50:27;;;;;;;2.10;1.10;;;;;;;12.61;58.77;98993.68;24990;1319;3054842;-69
2022/09/24 10:52:59;;;;;;;2.50;1.00;;;;;;;12.39;59.56;98987.63;25032;1322;3056957;-67
2022/09/24 10:55:37;;;;;;;2.00;1.20;;;;;;;12.31;58.93;98990.29;25044;1319;3026755;-65
2022/09/24 10:58:21;;;;;;;3.70;1.70;;;;;;;12.31;59.22;98994.85;25005;1319;3050291;-65
2022/09/24 11:01:31;;;;;;;2.00;1.30;;;;;;;12.31;60.22;98987.98;24970;1319;3055571;-63
2022/09/24 11:04:24;;;;;;;1.90;1.30;;;;;;;12.29;61.37;98982.52;24852;1321;3053873;-66
2022/09/24 11:07:19;;;;;;;2.20;1.30;;;;;;;12.36;60.65;98983.40;24903;1321;3071110;-68
2022/09/24 11:10:00;;;;;;;2.80;1.70;;;;;;;12.29;60.99;98991.91;25008;1321;3051761;-67
2022/09/24 11:12:35;;;;;;;2.40;1.60;;;;;;;12.39;60.80;98986.33;24995;1320;3052645;-71
2022/09/24 11:15:28;;;;;;;2.70;1.50;;;;;;;12.52;60.64;98981.34;24907;1321;3055229;-65
2022/09/24 11:18:21;;;;;;;3.60;2.20;;;;;;;12.49;60.75;98986.13;24988;1321;3059211;-63
2022/09/24 11:20:57;;;;;;;3.50;2.20;;;;;;;12.30;62.10;98993.37;24906;1321;3049859;-68
2022/09/24 11:23:30;;;;;;;6.00;2.10;;;;;;;12.32;62.00;98998.81;24943;1321;3053423;-71
2022/09/24 11:26:06;;;;;;;5.40;2.70;;;;;;;12.25;62.70;99007.10;24937;1321;3054498;-62
2022/09/24 11:28:56;;;;;;;6.40;3.00;;;;;;;11.93;64.87;99005.91;24986;1321;3071258;-69
2022/09/24 11:31:55;;;;;;;3.30;2.40;;;;;;;11.65;66.08;99007.59;24930;1319;3050495;-66
2022/09/24 11:34:43;;;;;;;5.30;2.60;;;;;;;11.51;66.44;99005.74;24997;1319;3052276;-71
2022/09/24 11:37:45;;;;;;;4.20;2.50;;;;;;;11.50;65.75;99000.27;24926;1321;3053073;-61
2022/09/24 11:40:17;;;;;;;4.80;2.40;;;;;;;11.46;65.89;99000.53;25004;1320;3059197;-69
2022/09/24 11:43:05;;;;;;;3.40;2.40;;;;;;;11.38;66.07;99003.52;25017;1319;3028277;-65
2022/09/24 11:45:34;;;;;;;3.70;2.70;;;;;;;11.41;66.39;99003.30;24938;1320;3052429;-66
2022/09/24 11:48:38;;;;;;;6.30;3.10;;;;;;;11.34;66.89;99005.55;24980;1320;3026747;-70
2022/09/24 11:51:19;;;;;;;4.70;3.10;;;;;;;11.53;67.03;99003.67;24920;1321;3071047;-61
2022/09/24 11:54:16;;;;;;;4.20;2.70;;;;;;;11.63;67.10;99002.48;25046;1319;3049346;-69
2022/09/24 11:56:48;;;;;;;4.20;2.50;;;;;;;12.04;66.23;98999.89;25032;1322;3054987;-63
2022/09/24 11:59:23;;;;;;;3.10;2.30;;;;;;;12.40;64.92;99004.39;24989;1319;3026893;-65
2022/09/24 12:02:04;;;;;;;4.70;2.90;;;;;;;12.40;64.47;99009.80;24982;1319;3056326;-66
2022/09/24 12:05:05;;;;;;;3.60;2.00;;;;;;;12.54;63.31;98999.98;24980;1320;3050177;-69